»·PEaware :: N4657 KSMX-KBFL

N4657 :: KSMX-KBFL

FLIGHT INFORMATION

Flight Status: Arrived
Operator: Privately registered:
United States
More flights under this callsign
Pilot: Daniel P. (20187)
Aircraft: PILATUS PC-12 EAGLE
(PC12)
More flights by this aircraft type
Origin: KSMX Santa Maria Pub/Capt Hancock
United States
Destination: KBFL Meadows
United States
More flights between these airports :: More routes between these airports
Route:
File this flight plan on PilotEdge
Remarks: Cat5
Altitude:
(Current/Filed)
7,500ft
Speed:
(Current/Filed)
180kts
Departed: 29-Aug-18 02:11 PM
Arrived: 29-Aug-18 02:44 PM
Distance/Time
Traveled:
76nm/0:33
Distance/Time
To Go:
Arrived

Flight Plot

Page will automatically refresh every two minutes.


Map Options




Map Legend


Flown Route
Filed Route
Departure Airport
Arrival Airport
Navaid (VOR, NDB)
Fix

Horizontal Profiles

Position Reports

Time Latitude Longitude Heading Altitude Ground
Speed
29-Aug-18 13:57 34.899665 -120.450388 215 265ft 0kts
29-Aug-18 13:58 34.899665 -120.450388 215 265ft 0kts
29-Aug-18 13:59 34.899664 -120.450388 215 265ft 0kts
29-Aug-18 14:00 34.899664 -120.450388 215 265ft 0kts
29-Aug-18 14:01 34.899664 -120.450388 215 265ft 0kts
29-Aug-18 14:02 34.899664 -120.450388 215 265ft 0kts
29-Aug-18 14:03 34.899664 -120.450388 215 265ft 0kts
29-Aug-18 14:04 34.899664 -120.450388 215 265ft 0kts
29-Aug-18 14:05 34.899664 -120.450388 215 265ft 0kts
29-Aug-18 14:06 34.899664 -120.450388 215 265ft 0kts
29-Aug-18 14:07 34.898558 -120.450001 171 265ft 8kts
29-Aug-18 14:08 34.896565 -120.447810 136 265ft 13kts
29-Aug-18 14:09 34.894139 -120.444950 154 265ft 6kts
29-Aug-18 14:10 34.893500 -120.444953 181 265ft 0kts
29-Aug-18 14:11 34.893114 -120.444960 183 265ft 6kts
29-Aug-18 14:12 34.904760 -120.461110 307 773ft 132kts
29-Aug-18 14:13 34.938738 -120.471467 23 3221ft 161kts
29-Aug-18 14:14 34.987254 -120.451100 44 4262ft 206kts
29-Aug-18 14:15 35.011685 -120.386614 66 5553ft 205kts
29-Aug-18 14:16 35.032093 -120.323681 67 6668ft 198kts
29-Aug-18 14:17 35.052074 -120.261987 67 7700ft 196kts
29-Aug-18 14:18 35.070707 -120.203980 67 7529ft 173kts
29-Aug-18 14:19 35.087641 -120.151638 66 7121ft 158kts
29-Aug-18 14:20 35.099702 -120.111413 77 8195ft 138kts
29-Aug-18 14:21 35.110825 -120.059369 73 7481ft 161kts
29-Aug-18 14:22 35.130444 -120.010168 54 7456ft 180kts
29-Aug-18 14:23 35.153443 -119.946942 67 7466ft 217kts
29-Aug-18 14:24 35.175889 -119.876881 67 7447ft 224kts
29-Aug-18 14:25 35.198408 -119.806406 67 7422ft 221kts
29-Aug-18 14:26 35.220213 -119.737820 67 7290ft 205kts
29-Aug-18 14:27 35.240170 -119.674940 67 6857ft 198kts
29-Aug-18 14:28 35.260089 -119.612028 67 6227ft 198kts
29-Aug-18 14:29 35.279928 -119.549154 67 5611ft 197kts
29-Aug-18 14:30 35.298895 -119.489107 67 5435ft 178kts
29-Aug-18 14:31 35.315991 -119.434888 67 5501ft 165kts
29-Aug-18 14:32 35.332322 -119.382975 67 5520ft 164kts
29-Aug-18 14:33 35.349099 -119.329539 67 5550ft 173kts
29-Aug-18 14:34 35.366217 -119.274848 67 5540ft 167kts
29-Aug-18 14:35 35.382525 -119.222738 67 5532ft 163kts
29-Aug-18 14:36 35.398849 -119.170440 67 5529ft 163kts
29-Aug-18 14:37 35.401023 -119.125428 117 4699ft 129kts
29-Aug-18 14:38 35.377958 -119.093034 149 3684ft 123kts
29-Aug-18 14:39 35.356823 -119.062148 133 2079ft 117kts
29-Aug-18 14:40 35.342125 -119.029497 68 1603ft 118kts
29-Aug-18 14:41 35.359495 -119.005388 42 1482ft 110kts
29-Aug-18 14:42 35.388106 -119.001630 316 1365ft 104kts
29-Aug-18 14:43 35.405318 -119.022098 314 909ft 101kts
29-Aug-18 14:44 35.424116 -119.044431 313 615ft 84kts
29-Aug-18 14:45 35.437457 -119.060382 352 492ft 15kts
29-Aug-18 14:46 35.438066 -119.060177 33 494ft 0kts
29-Aug-18 14:47 35.438066 -119.060177 33 494ft 0kts
29-Aug-18 14:48 35.438102 -119.060144 36 495ft 2kts
29-Aug-18 14:49 35.437426 -119.058305 135 496ft 4kts
29-Aug-18 14:50 35.435137 -119.055536 135 492ft 17kts
29-Aug-18 14:51 35.431722 -119.051339 134 493ft 9kts
29-Aug-18 14:52 35.430949 -119.048835 74 495ft 8kts
29-Aug-18 14:53 35.431304 -119.048331 322 498ft 0kts
29-Aug-18 14:54 35.431304 -119.048331 322 498ft 0kts
29-Aug-18 14:55 35.431304 -119.048331 322 498ft 0kts

Navigation Log

Ident Type
Flight plan parsing failed, navigation log unavailable